createdAt,value
2023-05-20T00:01:55.064Z,5.28
2023-05-20T00:04:22.474Z,5.20
2023-05-20T00:06:50.221Z,5.07
2023-05-20T00:09:19.635Z,5.22
2023-05-20T00:11:47.207Z,5.85
2023-05-20T00:14:14.767Z,4.35
2023-05-20T00:16:41.900Z,5.47
2023-05-20T00:19:10.331Z,5.38
2023-05-20T00:21:37.613Z,5.07
2023-05-20T00:24:06.891Z,4.93
2023-05-20T00:26:34.050Z,4.97
2023-05-20T00:29:04.857Z,5.65
2023-05-20T00:31:31.958Z,4.70
2023-05-20T00:34:00.036Z,5.32
2023-05-20T00:36:27.575Z,4.97
2023-05-20T00:38:54.889Z,5.35
2023-05-20T00:41:24.434Z,5.15
2023-05-20T00:43:55.817Z,5.63
2023-05-20T00:46:24.372Z,5.43
2023-05-20T00:48:51.968Z,5.70
2023-05-20T00:51:19.105Z,6.03
2023-05-20T00:53:46.601Z,5.22
2023-05-20T00:56:14.413Z,5.38
2023-05-20T00:58:41.901Z,5.20
2023-05-20T01:01:09.020Z,5.35
2023-05-20T01:03:36.579Z,5.20
2023-05-20T01:06:03.937Z,4.40
2023-05-20T01:08:32.446Z,4.93
2023-05-20T01:11:26.792Z,4.88
2023-05-20T01:14:01.602Z,5.00
2023-05-20T01:16:30.873Z,4.45
2023-05-20T01:19:01.103Z,4.05
2023-05-20T01:21:30.817Z,5.25
2023-05-20T01:23:58.292Z,3.97
2023-05-20T01:26:27.313Z,5.97
2023-05-20T01:28:54.822Z,5.47
2023-05-20T01:31:26.292Z,5.47
2023-05-20T01:34:00.123Z,5.50
2023-05-20T01:36:29.293Z,4.28
2023-05-20T01:38:58.183Z,5.35
2023-05-20T01:41:27.460Z,4.10
2023-05-20T01:43:56.107Z,5.05
2023-05-20T01:46:23.316Z,5.20
2023-05-20T01:48:50.838Z,3.53
2023-05-20T01:51:18.030Z,4.93
2023-05-20T01:53:46.488Z,5.07
2023-05-20T01:56:13.583Z,5.13
2023-05-20T01:58:43.044Z,4.85
2023-05-20T02:01:10.119Z,3.70
2023-05-20T02:03:37.490Z,5.05
2023-05-20T02:06:05.660Z,4.70
2023-05-20T02:11:00.170Z,4.50
2023-05-20T02:13:27.916Z,4.50
2023-05-20T02:15:55.126Z,5.40
2023-05-20T02:18:22.688Z,3.85
2023-05-20T02:20:50.868Z,3.65
2023-05-20T02:23:18.419Z,5.50
2023-05-20T02:25:46.161Z,5.20
2023-05-20T02:28:13.672Z,3.00
2023-05-20T02:30:41.242Z,3.88
2023-05-20T02:33:10.294Z,5.57
2023-05-20T02:35:37.381Z,3.63
2023-05-20T02:38:04.850Z,4.70
2023-05-20T02:40:32.783Z,3.92
2023-05-20T02:43:01.987Z,4.55
2023-05-20T02:45:29.074Z,4.15
2023-05-20T02:47:57.101Z,5.80
2023-05-20T02:50:25.554Z,4.53
2023-05-20T02:55:20.270Z,3.80
2023-05-20T02:57:47.635Z,5.88
2023-05-20T03:00:16.823Z,5.75
2023-05-20T03:02:44.527Z,5.90
2023-05-20T03:05:12.700Z,4.18
2023-05-20T03:10:08.782Z,5.97
2023-05-20T03:12:37.535Z,4.47
2023-05-20T03:15:06.608Z,3.95
2023-05-20T03:17:34.078Z,3.92
2023-05-20T03:20:04.245Z,3.20
2023-05-20T03:22:31.738Z,4.75
2023-05-20T03:25:03.677Z,5.38
2023-05-20T03:27:31.333Z,4.13
2023-05-20T03:30:02.908Z,5.82
2023-05-20T03:32:32.797Z,4.35
2023-05-20T03:35:02.719Z,4.97
2023-05-20T03:37:32.552Z,5.28
2023-05-20T03:39:59.601Z,4.60
2023-05-20T03:42:35.302Z,5.45
2023-05-20T03:45:04.572Z,6.10
2023-05-20T03:47:33.431Z,5.43
2023-05-20T03:52:27.837Z,5.93
2023-05-20T03:55:01.530Z,5.15
2023-05-20T03:57:32.631Z,5.28
2023-05-20T04:00:00.132Z,5.10
2023-05-20T04:11:54.942Z,5.40
2023-05-20T04:14:22.123Z,6.65
2023-05-20T04:16:50.457Z,6.15
2023-05-20T04:19:19.800Z,5.75
2023-05-20T04:21:47.339Z,6.18
2023-05-20T04:24:14.732Z,5.72
2023-05-20T04:32:23.154Z,6.20
2023-05-20T04:35:00.027Z,5.88
2023-05-20T04:37:27.029Z,6.10
2023-05-20T04:39:55.057Z,6.55
2023-05-20T04:42:22.678Z,5.70
2023-05-20T04:44:50.500Z,6.45
2023-05-20T04:47:17.611Z,6.43
2023-05-20T04:49:46.014Z,6.13
2023-05-20T04:52:13.125Z,6.13
2023-05-20T04:54:41.254Z,5.85
2023-05-20T04:57:09.089Z,6.57
2023-05-20T04:59:37.580Z,6.72
2023-05-20T05:02:05.595Z,5.95
2023-05-20T05:04:33.626Z,6.10
2023-05-20T05:07:00.884Z,6.05
2023-05-20T05:09:28.398Z,5.88
2023-05-20T05:11:55.895Z,6.43
2023-05-20T05:14:23.902Z,6.38
2023-05-20T05:16:54.933Z,5.65
2023-05-20T05:19:23.528Z,6.43
2023-05-20T05:21:51.765Z,6.45
2023-05-20T05:24:19.505Z,7.03
2023-05-20T05:26:46.677Z,7.50
2023-05-20T05:29:15.106Z,7.05
2023-05-20T05:34:10.110Z,6.70
2023-05-20T05:36:40.556Z,6.60
2023-05-20T05:39:09.950Z,7.50
2023-05-20T05:41:40.232Z,7.55
2023-05-20T05:44:16.686Z,7.68
2023-05-20T05:46:43.906Z,7.60
2023-05-20T05:49:12.420Z,6.97
2023-05-20T05:51:39.589Z,4.15
2023-05-20T05:54:07.953Z,7.22
2023-05-20T05:56:39.224Z,7.00
2023-05-20T05:59:07.488Z,5.40
2023-05-20T06:01:34.997Z,7.25
2023-05-20T06:04:03.229Z,7.22
2023-05-20T06:06:39.737Z,6.25
2023-05-20T06:09:08.972Z,7.10
2023-05-20T06:11:37.200Z,5.25
2023-05-20T06:14:07.178Z,5.10
2023-05-20T06:16:35.728Z,4.68
2023-05-20T06:19:05.746Z,7.45
2023-05-20T06:24:31.107Z,6.88
2023-05-20T06:33:20.330Z,6.45
2023-05-20T06:38:58.767Z,5.13
2023-05-20T06:41:26.812Z,6.50
2023-05-20T06:43:57.114Z,5.25
2023-05-20T06:46:30.345Z,7.05
2023-05-20T06:57:55.361Z,6.53
2023-05-20T07:00:23.191Z,6.00
2023-05-20T07:02:56.879Z,7.30
2023-05-20T07:05:24.664Z,7.82
2023-05-20T07:07:52.159Z,5.70
2023-05-20T07:10:19.368Z,6.63
2023-05-20T07:12:46.952Z,6.93
2023-05-20T07:15:15.370Z,7.03
2023-05-20T07:17:42.904Z,6.00
2023-05-20T07:20:10.476Z,6.57
2023-05-20T07:22:37.929Z,7.20
2023-05-20T07:25:05.812Z,6.72
2023-05-20T07:30:00.450Z,5.65
2023-05-20T07:32:28.263Z,4.20
2023-05-20T07:34:57.997Z,4.15
2023-05-20T07:37:25.407Z,5.47
2023-05-20T07:39:52.509Z,7.13
2023-05-20T07:42:20.080Z,6.03
2023-05-20T07:44:47.200Z,5.53
2023-05-20T07:47:15.712Z,5.28
2023-05-20T07:49:44.540Z,5.60
2023-05-20T07:52:12.454Z,5.07
2023-05-20T07:54:39.753Z,4.80
2023-05-20T07:57:07.312Z,5.78
2023-05-20T07:59:34.524Z,7.03
2023-05-20T08:02:02.170Z,6.95
2023-05-20T08:04:29.614Z,6.68
2023-05-20T08:06:58.693Z,6.25
2023-05-20T08:09:26.030Z,7.07
2023-05-20T08:11:53.814Z,6.45
2023-05-20T08:14:21.055Z,6.68
2023-05-20T08:16:48.595Z,6.00
2023-05-20T08:19:15.802Z,6.30
2023-05-20T08:21:44.729Z,5.90
2023-05-20T08:27:33.409Z,5.60
2023-05-20T08:30:01.175Z,4.85
2023-05-20T08:32:28.437Z,5.13
2023-05-20T08:34:56.374Z,6.68
2023-05-20T08:40:13.739Z,5.50
2023-05-20T08:42:44.705Z,6.63
2023-05-20T08:45:17.765Z,7.32
2023-05-20T08:47:45.019Z,6.35
2023-05-20T08:50:14.114Z,5.78
2023-05-20T08:52:46.571Z,6.18
2023-05-20T08:55:30.379Z,5.50
2023-05-20T08:57:58.192Z,5.38
2023-05-20T09:00:33.900Z,6.47
2023-05-20T09:03:04.449Z,5.93
2023-05-20T09:05:32.405Z,5.82
2023-05-20T09:08:12.816Z,6.20
2023-05-20T09:10:42.004Z,6.03
2023-05-20T09:13:12.123Z,7.28
2023-05-20T09:15:40.561Z,7.43
2023-05-20T09:18:09.102Z,6.45
2023-05-20T09:20:42.126Z,7.18
2023-05-20T09:23:10.372Z,5.38
2023-05-20T09:25:38.072Z,5.65
2023-05-20T09:28:07.742Z,5.65
2023-05-20T09:30:35.508Z,4.97
2023-05-20T09:33:05.527Z,4.22
2023-05-20T09:35:39.420Z,5.20
2023-05-20T09:38:09.276Z,4.70
2023-05-20T09:40:39.002Z,5.38
2023-05-20T09:43:08.054Z,5.90
2023-05-20T09:45:37.594Z,4.22
2023-05-20T09:48:13.594Z,4.90
2023-05-20T09:50:42.847Z,5.75
2023-05-20T09:53:12.716Z,5.25
2023-05-20T09:55:46.510Z,3.85
2023-05-20T10:00:59.344Z,4.63
2023-05-20T10:03:36.117Z,5.65
2023-05-20T10:06:10.056Z,4.57
2023-05-20T10:08:55.744Z,4.45
2023-05-20T10:12:02.257Z,5.40
2023-05-20T10:14:42.296Z,4.47
2023-05-20T10:17:37.567Z,5.90
2023-05-20T10:20:21.829Z,4.50
2023-05-20T10:23:00.372Z,4.75
2023-05-20T10:28:36.720Z,4.32
2023-05-20T10:31:18.559Z,4.95
2023-05-20T10:34:08.124Z,3.72
2023-05-20T10:36:35.459Z,5.30
2023-05-20T10:39:04.987Z,5.70
2023-05-20T10:44:27.209Z,5.75
2023-05-20T10:47:21.094Z,5.00
2023-05-20T10:52:39.822Z,4.47
2023-05-20T10:55:11.362Z,5.65
2023-05-20T10:57:38.802Z,5.53
2023-05-20T11:00:11.169Z,5.63
2023-05-20T11:08:27.287Z,4.28
2023-05-20T11:10:59.790Z,3.92
2023-05-20T11:13:27.999Z,4.70
2023-05-20T11:16:10.332Z,4.70
2023-05-20T11:18:42.871Z,4.80
2023-05-20T11:21:12.335Z,4.10
2023-05-20T11:23:46.797Z,5.20
2023-05-20T11:26:21.164Z,5.30
2023-05-20T11:32:00.305Z,3.90
2023-05-20T11:34:37.817Z,5.45
2023-05-20T11:37:09.995Z,4.18
2023-05-20T11:39:42.024Z,4.07
2023-05-20T11:42:09.527Z,4.90
2023-05-20T11:44:50.138Z,4.90
2023-05-20T11:47:25.362Z,4.63
2023-05-20T11:49:52.910Z,6.05
2023-05-20T11:52:20.265Z,5.20
2023-05-20T11:54:54.357Z,5.95
2023-05-20T11:57:21.415Z,4.43
2023-05-20T11:59:49.704Z,4.95
2023-05-20T12:02:16.846Z,5.90
2023-05-20T12:04:45.950Z,3.63
2023-05-20T12:07:17.581Z,5.20
2023-05-20T12:09:46.599Z,5.25
2023-05-20T12:12:14.340Z,3.70
2023-05-20T12:17:08.931Z,3.85
2023-05-20T12:19:45.782Z,5.13
2023-05-20T12:22:13.132Z,4.40
2023-05-20T12:24:41.291Z,4.05
2023-05-20T12:27:09.735Z,3.92
2023-05-20T12:29:37.844Z,3.72
2023-05-20T12:34:41.959Z,3.28
2023-05-20T12:37:09.307Z,3.65
2023-05-20T12:39:39.403Z,3.35
2023-05-20T12:42:07.211Z,3.53
2023-05-20T12:44:35.241Z,2.72
2023-05-20T12:47:03.280Z,3.10
2023-05-20T12:49:33.970Z,2.47
2023-05-20T12:52:11.907Z,3.38
2023-05-20T12:54:47.177Z,2.97
2023-05-20T12:57:14.656Z,3.67
2023-05-20T12:59:42.234Z,4.13
2023-05-20T13:02:10.892Z,4.68
2023-05-20T13:04:38.425Z,4.55
2023-05-20T13:07:08.739Z,4.50
2023-05-20T13:09:36.392Z,2.58
2023-05-20T13:12:06.146Z,3.58
2023-05-20T13:14:48.955Z,3.40
2023-05-20T13:17:17.224Z,3.78
2023-05-20T13:19:46.604Z,3.10
2023-05-20T13:22:14.263Z,3.10
2023-05-20T13:24:43.935Z,3.35
2023-05-20T13:27:12.234Z,3.30
2023-05-20T13:29:39.539Z,2.10
2023-05-20T13:32:07.188Z,3.00
2023-05-20T13:34:34.619Z,2.53
2023-05-20T13:37:02.200Z,2.75
2023-05-20T13:39:29.829Z,3.03
2023-05-20T13:44:27.716Z,3.47
2023-05-20T13:46:56.118Z,2.95
2023-05-20T14:13:12.981Z,4.00
2023-05-20T14:15:40.692Z,3.72
2023-05-20T14:18:08.561Z,3.33
2023-05-20T14:20:43.763Z,4.53
2023-05-20T14:23:15.641Z,4.00
2023-05-20T14:25:47.691Z,4.32
2023-05-20T14:31:23.171Z,4.85
2023-05-20T14:36:59.589Z,3.28
2023-05-20T14:45:45.038Z,3.90
2023-05-20T14:48:15.874Z,3.92
2023-05-20T14:56:44.622Z,4.10
2023-05-20T15:02:08.203Z,4.80
2023-05-20T15:07:39.536Z,4.50
2023-05-20T15:18:55.365Z,4.00
2023-05-20T15:21:43.436Z,2.80
2023-05-20T15:32:23.966Z,2.53
2023-05-20T15:34:53.257Z,3.08
2023-05-20T15:37:21.750Z,2.55
2023-05-20T15:42:33.734Z,2.97
2023-05-20T15:45:04.047Z,3.35
2023-05-20T15:47:32.404Z,3.05
2023-05-20T15:52:41.929Z,2.55
2023-05-20T15:55:30.451Z,2.83
2023-05-20T16:03:47.113Z,2.58
2023-05-20T16:06:18.810Z,3.00
2023-05-20T16:11:33.195Z,3.05
2023-05-20T16:14:00.649Z,3.03
2023-05-20T16:16:52.233Z,3.00
2023-05-20T16:19:20.227Z,4.38
2023-05-20T16:21:47.907Z,2.72
2023-05-20T16:24:15.896Z,2.90
2023-05-20T16:26:43.888Z,2.97
2023-05-20T16:29:11.255Z,3.25
2023-05-20T16:31:39.022Z,3.20
2023-05-20T16:34:06.790Z,3.17
2023-05-20T16:36:34.271Z,2.72
2023-05-20T16:39:02.725Z,3.38
2023-05-20T16:41:31.526Z,2.65
2023-05-20T16:43:58.808Z,2.72
2023-05-20T16:46:29.041Z,4.28
2023-05-20T16:48:56.504Z,2.50
2023-05-20T16:51:24.460Z,2.50
2023-05-20T16:53:51.537Z,2.80
2023-05-20T16:56:23.177Z,2.58
2023-05-20T16:58:52.811Z,3.60
2023-05-20T17:01:23.173Z,2.35
2023-05-20T17:03:51.612Z,3.22
2023-05-20T17:09:04.775Z,3.17
2023-05-20T17:11:32.563Z,2.80
2023-05-20T17:14:00.854Z,2.80
2023-05-20T17:16:29.259Z,2.17
2023-05-20T17:18:58.982Z,2.88
2023-05-20T17:21:33.455Z,3.35
2023-05-20T17:24:02.007Z,2.42
2023-05-20T17:26:29.913Z,2.65
2023-05-20T17:28:57.532Z,3.42
2023-05-20T17:31:25.409Z,3.33
2023-05-20T17:36:36.720Z,3.00
2023-05-20T17:39:11.250Z,2.80
2023-05-20T17:41:38.674Z,2.80
2023-05-20T17:44:07.547Z,3.20
2023-05-20T17:46:35.944Z,3.28
2023-05-20T17:49:03.525Z,2.78
2023-05-20T17:51:32.009Z,2.40
2023-05-20T17:54:03.837Z,3.30
2023-05-20T17:56:31.743Z,3.35
2023-05-20T17:58:59.154Z,3.42
2023-05-20T18:01:27.222Z,3.25
2023-05-20T18:03:54.562Z,2.95
2023-05-20T18:06:23.225Z,3.15
2023-05-20T18:08:50.656Z,3.00
2023-05-20T18:11:19.139Z,2.65
2023-05-20T18:13:46.467Z,2.72
2023-05-20T18:16:15.106Z,3.45
2023-05-20T18:18:42.283Z,2.28
2023-05-20T18:21:10.270Z,3.00
2023-05-20T18:23:41.213Z,2.63
2023-05-20T18:26:09.346Z,3.40
2023-05-20T18:28:42.033Z,3.83
2023-05-20T18:31:09.804Z,2.53
2023-05-20T18:33:41.196Z,3.70
2023-05-20T18:36:09.481Z,2.97
2023-05-20T18:38:37.509Z,3.78
2023-05-20T18:41:06.654Z,3.92
2023-05-20T18:43:33.826Z,2.95
2023-05-20T18:46:01.621Z,3.10
2023-05-20T18:48:32.634Z,3.35
2023-05-20T18:51:00.183Z,3.20
2023-05-20T18:53:28.092Z,2.85
2023-05-20T18:55:57.269Z,4.40
2023-05-20T18:58:24.446Z,3.30
2023-05-20T19:03:44.393Z,3.10
2023-05-20T19:06:14.766Z,2.58
2023-05-20T19:08:43.748Z,3.15
2023-05-20T19:11:20.341Z,2.47
2023-05-20T19:13:47.751Z,2.97
2023-05-20T19:16:15.852Z,2.63
2023-05-20T19:18:43.801Z,2.28
2023-05-20T19:21:11.855Z,2.70
2023-05-20T19:26:45.729Z,2.22
2023-05-20T19:29:29.877Z,2.97
2023-05-20T19:32:00.896Z,3.33
2023-05-20T19:34:28.447Z,2.58
2023-05-20T19:36:58.018Z,2.67
2023-05-20T19:39:27.477Z,2.30
2023-05-20T19:41:54.737Z,2.55
2023-05-20T19:44:56.209Z,2.95
2023-05-20T19:47:23.497Z,2.50
2023-05-20T19:50:00.419Z,4.10
2023-05-20T19:52:29.319Z,3.03
2023-05-20T19:54:58.423Z,3.13
2023-05-20T19:57:26.135Z,2.70
2023-05-20T20:00:03.463Z,2.47
2023-05-20T20:02:32.021Z,2.88
2023-05-20T20:05:01.305Z,2.67
2023-05-20T20:07:29.082Z,2.72
2023-05-20T20:09:56.610Z,3.15
2023-05-20T20:12:23.905Z,3.22
2023-05-20T20:14:52.293Z,3.35
2023-05-20T20:17:20.718Z,2.75
2023-05-20T20:19:53.507Z,3.10
2023-05-20T20:22:20.938Z,2.90
2023-05-20T20:24:50.183Z,3.50
2023-05-20T20:27:19.896Z,3.53
2023-05-20T20:29:48.832Z,4.10
2023-05-20T20:32:17.805Z,2.97
2023-05-20T20:34:47.971Z,3.70
2023-05-20T20:37:19.937Z,2.83
2023-05-20T20:39:48.625Z,3.70
2023-05-20T20:42:17.019Z,4.20
2023-05-20T20:44:49.487Z,3.78
2023-05-20T20:47:17.780Z,3.63
2023-05-20T20:49:46.464Z,4.00
2023-05-20T20:52:19.479Z,2.97
2023-05-20T20:54:48.415Z,3.80
2023-05-20T20:57:17.647Z,3.53
2023-05-20T21:02:28.777Z,3.60
2023-05-20T21:04:59.279Z,3.42
2023-05-20T21:07:26.334Z,2.55
2023-05-20T21:09:55.269Z,3.55
2023-05-20T21:12:22.740Z,3.47
2023-05-20T21:14:50.760Z,3.20
2023-05-20T21:17:21.161Z,3.60
2023-05-20T21:19:51.162Z,3.72
2023-05-20T21:22:18.256Z,3.83
2023-05-20T21:24:47.757Z,2.97
2023-05-20T21:27:14.975Z,3.42
2023-05-20T21:29:45.154Z,3.47
2023-05-20T21:32:13.599Z,3.42
2023-05-20T21:34:43.433Z,2.95
2023-05-20T21:37:10.720Z,4.05
2023-05-20T21:39:41.968Z,2.90
2023-05-20T21:42:09.041Z,4.20
2023-05-20T21:44:40.196Z,3.40
2023-05-20T21:47:07.501Z,4.10
2023-05-20T21:49:34.882Z,3.78
2023-05-20T21:52:02.202Z,4.05
2023-05-20T21:54:29.631Z,3.65
2023-05-20T21:56:57.066Z,3.72
2023-05-20T21:59:24.740Z,3.70
2023-05-20T22:01:51.919Z,3.80
2023-05-20T22:04:19.535Z,4.28
2023-05-20T22:06:47.449Z,3.88
2023-05-20T22:09:14.953Z,3.30
2023-05-20T22:11:45.267Z,3.20
2023-05-20T22:14:16.389Z,3.58
2023-05-20T22:16:49.418Z,3.95
2023-05-20T22:19:18.016Z,3.75
2023-05-20T22:21:50.765Z,3.40
2023-05-20T22:24:19.105Z,3.70
2023-05-20T22:26:46.211Z,3.70
2023-05-20T22:29:14.982Z,3.65
2023-05-20T22:31:42.627Z,3.47
2023-05-20T22:34:10.048Z,3.70
2023-05-20T22:36:39.723Z,3.78
2023-05-20T22:39:07.330Z,3.42
2023-05-20T22:41:34.657Z,3.78
2023-05-20T22:44:02.028Z,3.58
2023-05-20T22:46:29.385Z,3.58
2023-05-20T22:49:01.873Z,3.67
2023-05-20T22:51:29.529Z,3.55
2023-05-20T22:56:26.076Z,3.40
2023-05-20T22:58:54.089Z,3.50
2023-05-20T23:01:26.757Z,3.38
2023-05-20T23:03:54.285Z,3.67
2023-05-20T23:06:22.804Z,3.35
2023-05-20T23:08:51.049Z,3.78
2023-05-20T23:11:18.075Z,3.00
2023-05-20T23:13:45.563Z,3.00
2023-05-20T23:16:12.704Z,3.70
2023-05-20T23:18:41.184Z,3.28
2023-05-20T23:21:08.408Z,3.10
2023-05-20T23:23:36.782Z,3.17
2023-05-20T23:26:06.365Z,3.17
2023-05-20T23:28:34.843Z,2.83
2023-05-20T23:31:02.074Z,2.45
2023-05-20T23:33:29.877Z,3.17
2023-05-20T23:35:57.085Z,2.92
2023-05-20T23:38:24.880Z,2.70
2023-05-20T23:40:51.903Z,3.13
2023-05-20T23:43:19.484Z,2.70
2023-05-20T23:45:46.890Z,3.17
2023-05-20T23:48:14.634Z,2.33
2023-05-20T23:50:41.783Z,2.78
2023-05-20T23:53:09.598Z,3.13
2023-05-20T23:55:37.052Z,3.00
2023-05-20T23:58:04.503Z,3.10
